Time;durP1;ratioP1;P1;durP2;ratioP2;P2;SDS_P1;SDS_P2;PMS_P1;PMS_P2;Temp;Humidity;BMP_temperature;BMP_pressure;BME280_temperature;BME280_humidity;BME280_pressure;Samples;Min_cycle;Max_cycle;Signal;HPM_P1;HPM_P2
2023/03/23 00:00:01;;;;;;;9.10;3.10;;;21.30;68.50;;;;;;5034785;28;20116;-85
2023/03/23 00:02:29;;;;;;;9.10;3.08;;;21.30;68.70;;;;;;5029478;28;20033;-84
2023/03/23 00:04:55;;;;;;;6.10;3.05;;;21.20;68.60;;;;;;5016394;28;20129;-81
2023/03/23 00:07:22;;;;;;;7.88;3.70;;;21.30;68.40;;;;;;5032423;28;20501;-83
2023/03/23 00:09:55;;;;;;;6.38;3.05;;;21.20;68.70;;;;;;5013204;28;20034;-82
2023/03/23 00:12:32;;;;;;;6.15;2.95;;;21.30;68.50;;;;;;4998892;28;20029;-84
2023/03/23 00:15:08;;;;;;;5.93;2.83;;;21.30;68.50;;;;;;5032646;28;20033;-83
2023/03/23 00:17:34;;;;;;;8.45;3.17;;;21.30;68.50;;;;;;5033621;28;20083;-83
2023/03/23 00:20:01;;;;;;;7.13;2.92;;;21.20;68.40;;;;;;5033734;28;20034;-83
2023/03/23 00:22:28;;;;;;;8.27;3.30;;;21.30;68.80;;;;;;5032594;28;20038;-85
2023/03/23 00:24:54;;;;;;;8.07;3.08;;;21.20;68.80;;;;;;5032977;28;20032;-82
2023/03/23 00:27:21;;;;;;;5.90;3.28;;;21.20;68.20;;;;;;5033770;28;20053;-86
2023/03/23 00:29:52;;;;;;;9.32;2.90;;;21.20;68.40;;;;;;5015309;28;20068;-81
2023/03/23 00:32:20;;;;;;;5.72;2.97;;;21.20;69.20;;;;;;5031595;28;20048;-82
2023/03/23 00:34:48;;;;;;;18.08;3.53;;;21.30;69.30;;;;;;5030649;28;20037;-81
2023/03/23 00:37:16;;;;;;;7.65;2.63;;;21.30;69.40;;;;;;5013477;28;20124;-85
2023/03/23 00:39:45;;;;;;;7.93;2.72;;;21.30;69.30;;;;;;5013552;28;20030;-82
2023/03/23 00:42:16;;;;;;;6.97;3.40;;;21.30;69.40;;;;;;5031598;28;20029;-84
2023/03/23 00:44:43;;;;;;;4.90;2.78;;;21.30;69.40;;;;;;5030807;28;20025;-81
2023/03/23 00:47:11;;;;;;;8.20;2.90;;;21.30;68.20;;;;;;5030828;28;20461;-82
2023/03/23 00:49:38;;;;;;;5.90;2.53;;;21.30;68.10;;;;;;5030522;28;20504;-81
2023/03/23 00:52:05;;;;;;;8.27;3.03;;;21.30;67.90;;;;;;5014164;28;20029;-79
2023/03/23 00:54:32;;;;;;;5.78;2.80;;;21.30;69.00;;;;;;5013062;28;20055;-81
2023/03/23 00:56:58;;;;;;;9.30;2.78;;;21.30;68.40;;;;;;5010470;28;20029;-81
2023/03/23 00:59:24;;;;;;;8.82;2.85;;;21.30;69.30;;;;;;5015796;28;20037;-88
2023/03/23 01:01:50;;;;;;;7.75;2.50;;;21.30;68.50;;;;;;5016186;28;20100;-80
2023/03/23 01:04:16;;;;;;;8.35;2.72;;;21.30;69.50;;;;;;5030492;28;20550;-80
2023/03/23 01:06:44;;;;;;;6.70;3.00;;;21.30;69.30;;;;;;5029187;28;20033;-80
2023/03/23 01:09:16;;;;;;;10.50;2.95;;;21.30;69.20;;;;;;5013532;28;20490;-79
2023/03/23 01:11:44;;;;;;;6.38;2.90;;;21.30;69.80;;;;;;5012428;28;20061;-79
2023/03/23 01:14:10;;;;;;;11.48;3.28;;;21.40;69.70;;;;;;5013361;28;20043;-80
2023/03/23 01:16:36;;;;;;;7.30;2.90;;;21.40;69.80;;;;;;4994677;28;20438;-79
2023/03/23 01:19:02;;;;;;;13.23;3.10;;;21.30;70.10;;;;;;5029334;28;20145;-79
2023/03/23 01:21:29;;;;;;;11.15;2.90;;;21.30;69.80;;;;;;5033372;28;20059;-77
2023/03/23 01:23:55;;;;;;;8.68;3.08;;;21.40;69.80;;;;;;5031624;28;20050;-79
2023/03/23 01:26:24;;;;;;;5.65;2.03;;;21.20;66.00;;;;;;5032840;28;20051;-79
2023/03/23 01:28:51;;;;;;;7.10;2.40;;;21.00;57.20;;;;;;5032236;28;20037;-79
2023/03/23 01:31:20;;;;;;;4.78;2.17;;;20.80;55.00;;;;;;5031742;28;20271;-79
2023/03/23 01:33:46;;;;;;;5.53;2.03;;;20.60;52.50;;;;;;5032734;28;20033;-80
2023/03/23 01:36:15;;;;;;;4.20;2.08;;;20.40;52.30;;;;;;5031687;28;20057;-81
2023/03/23 01:38:44;;;;;;;5.05;2.13;;;20.40;52.30;;;;;;5015400;28;20030;-89
2023/03/23 01:41:11;;;;;;;5.07;2.08;;;20.30;52.10;;;;;;5031289;28;20029;-78
2023/03/23 01:44:06;;;;;;;4.30;2.10;;;20.20;52.20;;;;;;5030491;28;20030;-78
2023/03/23 01:46:51;;;;;;;7.10;2.05;;;20.40;52.90;;;;;;5028867;28;20056;-77
2023/03/23 01:49:21;;;;;;;4.63;2.15;;;20.50;54.10;;;;;;5065002;23;20080;-73
2023/03/23 01:51:52;;;;;;;6.15;1.95;;;20.50;55.10;;;;;;5049607;28;20068;-72
2023/03/23 01:54:23;;;;;;;6.15;1.90;;;20.60;57.10;;;;;;5058749;28;20466;-73
2023/03/23 01:56:58;;;;;;;11.75;2.25;;;20.60;57.90;;;;;;5058694;28;20033;-73
2023/03/23 01:59:26;;;;;;;8.65;1.92;;;20.70;58.40;;;;;;5056867;28;20028;-72
2023/03/23 02:02:12;;;;;;;8.80;1.73;;;20.70;58.60;;;;;;5058488;28;20085;-73
2023/03/23 02:04:40;;;;;;;4.10;1.83;;;20.80;58.90;;;;;;5056529;28;20447;-73
2023/03/23 02:07:06;;;;;;;8.38;1.90;;;20.70;58.80;;;;;;5061880;28;20507;-73
2023/03/23 02:09:32;;;;;;;7.57;1.95;;;20.80;59.10;;;;;;5063188;28;20032;-73
2023/03/23 02:11:58;;;;;;;12.02;2.20;;;20.80;59.50;;;;;;5045836;28;20453;-72
2023/03/23 02:14:25;;;;;;;5.03;1.80;;;20.80;59.70;;;;;;5070409;28;20036;-73
2023/03/23 02:16:57;;;;;;;6.53;2.05;;;20.80;59.80;;;;;;5059379;28;20112;-72
2023/03/23 02:20:00;;;;;;;5.35;1.60;;;20.90;60.10;;;;;;5059904;28;20036;-73
2023/03/23 02:22:56;;;;;;;7.95;1.67;;;20.90;60.40;;;;;;5059688;28;20021;-72
2023/03/23 02:25:51;;;;;;;8.77;1.70;;;20.80;60.50;;;;;;5056291;28;20085;-72
2023/03/23 02:28:31;;;;;;;6.10;1.80;;;20.80;60.60;;;;;;5058866;28;20028;-73
2023/03/23 02:31:16;;;;;;;8.57;2.10;;;20.90;61.50;;;;;;5061354;28;20025;-73
2023/03/23 02:34:04;;;;;;;6.30;2.17;;;20.90;61.10;;;;;;5037485;28;20033;-73
2023/03/23 02:36:46;;;;;;;4.75;2.13;;;20.90;61.20;;;;;;5072124;28;20035;-72
2023/03/23 02:39:17;;;;;;;6.55;1.73;;;20.90;61.40;;;;;;5057586;28;20029;-72
2023/03/23 02:41:50;;;;;;;4.55;1.70;;;20.90;61.50;;;;;;5058711;28;20029;-73
2023/03/23 02:44:16;;;;;;;4.50;1.67;;;20.90;61.60;;;;;;5059880;28;20488;-73
2023/03/23 02:46:44;;;;;;;3.67;1.95;;;20.90;61.80;;;;;;5066149;28;20059;-72
2023/03/23 02:49:14;;;;;;;4.80;1.63;;;20.90;61.90;;;;;;5067672;28;20050;-72
2023/03/23 02:51:40;;;;;;;;;;;20.90;62.60;;;;;;5051877;28;20089;-73
2023/03/23 02:54:09;;;;;;;3.92;1.90;;;20.90;62.20;;;;;;5057454;28;19919;-73
2023/03/23 02:56:35;;;;;;;5.53;1.88;;;20.90;62.30;;;;;;5060244;28;20077;-73
2023/03/23 02:59:04;;;;;;;4.57;2.00;;;20.90;62.30;;;;;;5058141;28;20036;-73
2023/03/23 03:01:33;;;;;;;6.15;1.90;;;20.90;62.50;;;;;;5041175;28;20029;-72
2023/03/23 03:04:04;;;;;;;4.53;2.22;;;20.90;62.80;;;;;;5057947;28;20036;-73
2023/03/23 03:06:48;;;;;;;5.22;1.58;;;20.90;62.70;;;;;;5048841;28;20404;-72
2023/03/23 03:09:51;;;;;;;7.95;1.80;;;20.90;62.70;;;;;;5065050;28;20082;-72
2023/03/23 03:12:59;;;;;;;5.85;1.80;;;20.90;62.70;;;;;;5067223;28;20127;-72
2023/03/23 03:16:02;;;;;;;4.78;1.58;;;20.90;62.90;;;;;;5008410;28;20033;-73
2023/03/23 03:18:34;;;;;;;4.18;1.88;;;20.90;62.80;;;;;;5041050;28;20111;-72
2023/03/23 03:21:07;;;;;;;3.45;1.83;;;20.90;62.90;;;;;;5065646;28;20029;-73
2023/03/23 03:23:37;;;;;;;4.22;1.80;;;20.90;62.80;;;;;;5068872;28;20059;-73
2023/03/23 03:26:05;;;;;;;6.00;2.20;;;20.90;62.90;;;;;;5066749;28;20020;-73
2023/03/23 03:28:47;;;;;;;4.20;1.80;;;20.90;63.00;;;;;;5048799;28;20029;-72
2023/03/23 03:31:17;;;;;;;5.07;1.70;;;20.90;63.10;;;;;;5058803;28;20066;-72
2023/03/23 03:33:44;;;;;;;5.22;1.80;;;20.90;63.10;;;;;;5062106;28;20017;-72
2023/03/23 03:36:19;;;;;;;3.60;1.55;;;20.90;63.20;;;;;;5062041;28;20086;-73
2023/03/23 03:38:49;;;;;;;3.67;1.70;;;20.90;63.40;;;;;;5085572;28;20028;-73
2023/03/23 03:41:17;;;;;;;7.05;1.85;;;20.90;63.40;;;;;;5045780;28;20023;-72
2023/03/23 03:43:43;;;;;;;5.07;1.63;;;20.90;63.40;;;;;;5052548;28;20032;-73
2023/03/23 03:46:10;;;;;;;4.45;1.80;;;20.90;63.50;;;;;;5087741;28;20143;-73
2023/03/23 03:48:38;;;;;;;3.33;1.50;;;20.90;63.50;;;;;;5048032;28;20036;-72
2023/03/23 03:51:04;;;;;;;7.20;1.90;;;20.90;63.70;;;;;;5056245;28;20025;-72
2023/03/23 03:53:33;;;;;;;4.10;1.90;;;20.90;63.60;;;;;;5072355;28;20033;-73
2023/03/23 03:55:59;;;;;;;3.45;1.60;;;20.90;63.70;;;;;;5064796;28;20035;-73
2023/03/23 03:58:31;;;;;;;3.13;1.58;;;20.90;63.80;;;;;;5061187;28;20024;-73
2023/03/23 04:01:00;;;;;;;4.00;1.42;;;20.90;63.90;;;;;;5062989;28;20073;-72
2023/03/23 04:03:30;;;;;;;6.75;1.60;;;20.90;63.90;;;;;;5052921;28;20112;-73
2023/03/23 04:06:04;;;;;;;2.55;1.50;;;20.90;64.00;;;;;;5054232;28;20021;-72
2023/03/23 04:08:31;;;;;;;5.70;1.98;;;20.90;64.00;;;;;;5065262;28;20036;-73
2023/03/23 04:10:57;;;;;;;4.72;1.40;;;20.90;64.00;;;;;;5061389;28;20033;-73
2023/03/23 04:13:24;;;;;;;2.10;1.50;;;20.90;64.10;;;;;;5068374;28;20025;-73
2023/03/23 04:16:03;;;;;;;2.65;1.75;;;20.90;63.90;;;;;;5068371;28;20025;-73
2023/03/23 04:18:32;;;;;;;4.57;1.42;;;20.90;64.10;;;;;;5053452;28;20036;-73
2023/03/23 04:20:59;;;;;;;3.80;1.73;;;20.90;64.00;;;;;;5065206;28;20043;-73
2023/03/23 04:23:27;;;;;;;3.67;1.80;;;20.90;64.10;;;;;;5057802;28;20032;-73
2023/03/23 04:25:56;;;;;;;4.68;1.58;;;20.90;64.20;;;;;;5052563;28;20032;-73
2023/03/23 04:28:25;;;;;;;2.55;1.60;;;20.90;64.20;;;;;;5054740;28;20492;-72
2023/03/23 04:31:20;;;;;;;4.30;1.30;;;20.90;64.20;;;;;;5061128;28;20055;-72
2023/03/23 04:33:52;;;;;;;3.22;1.67;;;20.90;64.20;;;;;;5059941;28;20045;-73
2023/03/23 04:36:22;;;;;;;2.90;1.60;;;20.90;64.20;;;;;;5062765;28;20476;-73
2023/03/23 04:38:56;;;;;;;4.47;1.35;;;20.90;64.40;;;;;;5061397;28;20036;-73
2023/03/23 04:41:24;;;;;;;3.10;1.55;;;20.90;64.40;;;;;;5060719;28;20090;-72
2023/03/23 04:44:04;;;;;;;5.20;1.70;;;20.90;64.40;;;;;;5060330;28;20029;-73
2023/03/23 04:46:36;;;;;;;7.68;1.55;;;20.90;64.90;;;;;;5057789;28;20032;-73
2023/03/23 04:49:07;;;;;;;4.53;1.70;;;20.90;64.90;;;;;;5051795;28;20032;-73
2023/03/23 04:51:39;;;;;;;4.05;1.67;;;20.90;64.90;;;;;;5058874;28;20374;-73
2023/03/23 04:54:27;;;;;;;1.80;1.20;;;20.90;65.10;;;;;;5055597;28;20047;-73
2023/03/23 04:56:54;;;;;;;;;;;20.90;65.10;;;;;;5060712;28;20035;-73
2023/03/23 04:59:21;;;;;;;7.43;2.05;;;20.90;65.30;;;;;;5053205;28;19916;-73
2023/03/23 05:02:12;;;;;;;5.80;1.75;;;20.90;65.40;;;;;;5066120;28;20108;-73
2023/03/23 05:04:40;;;;;;;4.72;1.73;;;20.90;65.20;;;;;;5059321;28;20029;-73
2023/03/23 05:07:13;;;;;;;4.20;1.80;;;20.90;65.60;;;;;;5060881;28;20024;-73
2023/03/23 05:09:47;;;;;;;6.63;1.67;;;20.90;65.50;;;;;;5059861;28;20079;-73
2023/03/23 05:12:14;;;;;;;4.38;1.60;;;20.90;65.60;;;;;;5050618;28;20035;-73
2023/03/23 05:14:50;;;;;;;5.75;1.80;;;20.90;65.70;;;;;;5059312;28;20572;-73
2023/03/23 05:17:19;;;;;;;4.10;1.40;;;20.90;65.60;;;;;;5058359;28;20029;-73
2023/03/23 05:19:49;;;;;;;3.73;1.30;;;20.90;65.70;;;;;;5059194;28;20395;-73
2023/03/23 05:22:32;;;;;;;6.30;1.83;;;21.00;65.70;;;;;;5065311;28;20082;-73
2023/03/23 05:25:02;;;;;;;2.50;1.45;;;20.90;65.70;;;;;;5065897;28;20048;-73
2023/03/23 05:27:30;;;;;;;4.38;1.70;;;20.90;65.70;;;;;;5052997;28;20024;-73
2023/03/23 05:30:00;;;;;;;4.20;1.70;;;20.90;65.80;;;;;;5041894;28;20039;-73
2023/03/23 05:32:31;;;;;;;5.60;1.65;;;20.90;65.80;;;;;;5056345;28;20039;-73
2023/03/23 05:35:04;;;;;;;5.15;1.70;;;21.00;65.80;;;;;;5055915;28;20028;-73
2023/03/23 05:37:33;;;;;;;5.53;1.63;;;21.00;65.90;;;;;;5062251;28;20086;-73
2023/03/23 05:40:07;;;;;;;3.85;1.70;;;20.90;65.90;;;;;;5061626;28;20691;-72
2023/03/23 05:42:41;;;;;;;4.82;1.60;;;21.00;65.80;;;;;;5052388;28;20063;-72
2023/03/23 05:45:16;;;;;;;3.50;1.60;;;21.00;66.00;;;;;;5059261;28;20021;-73
2023/03/23 05:47:42;;;;;;;7.50;1.63;;;21.00;65.90;;;;;;5033277;28;20063;-72
2023/03/23 05:50:18;;;;;;;2.70;1.40;;;21.00;66.00;;;;;;5064737;28;20033;-73
2023/03/23 05:52:45;;;;;;;3.47;1.70;;;21.00;66.30;;;;;;5060094;28;20476;-72
2023/03/23 05:55:14;;;;;;;2.40;1.50;;;21.00;66.00;;;;;;5055295;28;20112;-73
2023/03/23 05:57:41;;;;;;;2.92;1.40;;;20.90;65.90;;;;;;5059251;28;20033;-72
2023/03/23 06:00:22;;;;;;;3.92;1.50;;;21.00;66.20;;;;;;5067669;28;20036;-73
2023/03/23 06:02:56;;;;;;;4.28;1.50;;;20.90;66.10;;;;;;5064103;28;20349;-73
2023/03/23 06:05:29;;;;;;;4.75;1.88;;;21.00;66.40;;;;;;5064775;28;20043;-73
2023/03/23 06:07:56;;;;;;;3.40;1.58;;;21.00;66.20;;;;;;5057835;28;20108;-73
2023/03/23 06:10:23;;;;;;;3.25;1.55;;;21.00;66.30;;;;;;5057771;28;20256;-72
2023/03/23 06:12:55;;;;;;;6.03;1.60;;;21.00;66.40;;;;;;5064799;28;20052;-73
2023/03/23 06:15:33;;;;;;;3.55;1.73;;;21.00;66.40;;;;;;5058573;28;20040;-73
2023/03/23 06:18:03;;;;;;;3.33;1.50;;;21.00;66.20;;;;;;5060126;28;20029;-73
2023/03/23 06:20:37;;;;;;;4.07;1.60;;;21.00;66.40;;;;;;5058325;28;20041;-73
2023/03/23 06:23:15;;;;;;;3.50;1.70;;;20.90;66.40;;;;;;5059161;28;20032;-73
2023/03/23 06:25:42;;;;;;;5.90;1.63;;;21.00;66.30;;;;;;5061547;28;20392;-73
2023/03/23 06:28:10;;;;;;;3.60;1.83;;;21.00;66.40;;;;;;5039067;28;20063;-72
2023/03/23 06:30:40;;;;;;;3.25;1.70;;;20.90;66.30;;;;;;5056273;28;20063;-73
2023/03/23 06:33:09;;;;;;;3.25;1.55;;;20.90;66.30;;;;;;5058085;28;20067;-72
2023/03/23 06:35:56;;;;;;;4.00;1.50;;;21.00;66.60;;;;;;5049379;28;20091;-72
2023/03/23 06:38:40;;;;;;;7.55;1.80;;;20.90;66.50;;;;;;5062897;28;20271;-72
2023/03/23 06:41:06;;;;;;;2.95;1.70;;;21.00;66.70;;;;;;5058864;28;20033;-72
2023/03/23 06:43:33;;;;;;;4.10;1.70;;;20.90;66.60;;;;;;5057572;28;20029;-72
2023/03/23 06:46:09;;;;;;;7.65;2.10;;;21.00;66.70;;;;;;5060553;28;20082;-72
2023/03/23 06:48:41;;;;;;;2.58;1.65;;;20.90;66.80;;;;;;5056091;28;20029;-72
2023/03/23 06:51:09;;;;;;;4.80;1.98;;;20.90;66.60;;;;;;5058198;28;20388;-72
2023/03/23 06:53:37;;;;;;;3.80;1.88;;;20.90;66.80;;;;;;5055661;28;20082;-72
2023/03/23 06:56:05;;;;;;;5.05;1.42;;;20.90;66.60;;;;;;5058984;28;20100;-72
2023/03/23 06:58:32;;;;;;;5.30;1.67;;;21.00;66.80;;;;;;5057374;28;20029;-73
2023/03/23 07:00:59;;;;;;;3.75;1.65;;;20.90;66.70;;;;;;5056042;28;20037;-72
2023/03/23 07:03:32;;;;;;;4.90;1.90;;;21.00;66.90;;;;;;5033480;28;20554;-72
2023/03/23 07:06:00;;;;;;;4.35;1.67;;;21.00;66.90;;;;;;5060579;28;20078;-73
2023/03/23 07:08:29;;;;;;;3.75;1.77;;;21.00;66.70;;;;;;5064525;28;20032;-73
2023/03/23 07:10:56;;;;;;;2.72;1.70;;;21.00;66.90;;;;;;5059737;28;20480;-73
2023/03/23 07:13:26;;;;;;;2.92;1.83;;;21.00;66.60;;;;;;5056785;28;20025;-73
2023/03/23 07:15:59;;;;;;;3.95;1.90;;;21.00;66.80;;;;;;5054234;28;20033;-73
2023/03/23 07:18:25;;;;;;;7.47;1.73;;;21.00;66.70;;;;;;5058504;28;20060;-73
2023/03/23 07:20:53;;;;;;;4.50;2.03;;;21.00;67.20;;;;;;5058288;28;20041;-73
2023/03/23 07:23:22;;;;;;;4.38;2.25;;;21.00;66.90;;;;;;5056645;28;20032;-73
2023/03/23 07:25:57;;;;;;;7.22;2.15;;;21.00;67.00;;;;;;5051948;28;20035;-72
2023/03/23 07:28:30;;;;;;;2.63;1.73;;;21.00;67.00;;;;;;5062648;28;20337;-72
2023/03/23 07:31:01;;;;;;;2.63;1.77;;;21.00;67.10;;;;;;5053932;28;20025;-73
2023/03/23 07:33:27;;;;;;;4.70;1.70;;;20.90;66.90;;;;;;5063975;28;20456;-72
2023/03/23 07:35:59;;;;;;;2.85;1.75;;;21.00;67.00;;;;;;5059969;28;20028;-72
2023/03/23 07:38:27;;;;;;;4.07;1.98;;;21.00;67.10;;;;;;5058203;28;20439;-72
2023/03/23 07:40:53;;;;;;;4.70;2.20;;;21.00;67.30;;;;;;5064167;28;20059;-72
2023/03/23 07:43:20;;;;;;;3.75;2.03;;;20.90;67.10;;;;;;5061012;28;20032;-73
2023/03/23 07:46:01;;;;;;;3.90;2.15;;;21.00;67.50;;;;;;5060156;28;20035;-72
2023/03/23 07:48:46;;;;;;;4.70;2.22;;;21.00;67.00;;;;;;5056248;28;20086;-73
2023/03/23 07:51:13;;;;;;;5.00;2.17;;;21.00;67.00;;;;;;5055532;28;20022;-72
2023/03/23 07:53:39;;;;;;;7.13;2.42;;;21.00;67.20;;;;;;5057651;28;20550;-72
2023/03/23 07:56:28;;;;;;;2.47;1.60;;;21.00;67.30;;;;;;5059043;28;20033;-73
2023/03/23 07:59:06;;;;;;;3.50;1.80;;;21.00;67.30;;;;;;5057357;28;20028;-73
2023/03/23 08:01:33;;;;;;;5.72;2.08;;;21.00;67.50;;;;;;5055625;28;20020;-73
2023/03/23 08:04:24;;;;;;;4.65;1.90;;;21.00;67.30;;;;;;5058935;28;20030;-73
2023/03/23 08:07:22;;;;;;;4.53;1.92;;;21.00;67.10;;;;;;5045585;28;20055;-72
2023/03/23 08:10:18;;;;;;;5.72;2.30;;;21.00;67.30;;;;;;5042821;28;20045;-72
2023/03/23 08:13:03;;;;;;;4.55;2.15;;;21.00;67.30;;;;;;5053664;28;20028;-73
2023/03/23 08:15:48;;;;;;;7.53;2.20;;;21.00;67.30;;;;;;5056871;28;20475;-73
2023/03/23 08:18:37;;;;;;;3.25;1.80;;;21.00;67.20;;;;;;5061194;28;20029;-72
2023/03/23 08:21:35;;;;;;;5.95;2.00;;;21.00;67.30;;;;;;5067299;28;20036;-72
2023/03/23 08:24:16;;;;;;;4.72;1.95;;;21.00;67.30;;;;;;5069349;28;20050;-73
2023/03/23 08:27:03;;;;;;;3.45;2.13;;;21.00;67.40;;;;;;5067991;28;20040;-73
2023/03/23 08:29:58;;;;;;;4.93;2.30;;;21.00;67.30;;;;;;5057431;28;20060;-73
2023/03/23 08:32:52;;;;;;;4.95;2.20;;;21.00;67.50;;;;;;5055319;28;20477;-73
2023/03/23 08:35:56;;;;;;;4.55;2.25;;;21.00;68.00;;;;;;5062736;28;20404;-73
2023/03/23 08:38:42;;;;;;;4.82;2.58;;;21.00;68.40;;;;;;5069827;28;20086;-72
2023/03/23 08:41:26;;;;;;;9.18;2.35;;;21.00;67.60;;;;;;5065802;28;20039;-73
2023/03/23 08:44:05;;;;;;;4.13;1.92;;;21.00;67.60;;;;;;5061105;28;20027;-73
2023/03/23 08:46:42;;;;;;;5.50;1.92;;;21.00;67.70;;;;;;5060740;28;20485;-72
2023/03/23 08:49:42;;;;;;;7.63;2.22;;;21.00;68.10;;;;;;5053773;28;20040;-73
2023/03/23 08:52:24;;;;;;;5.95;2.10;;;21.00;67.80;;;;;;5051003;28;20541;-72
2023/03/23 08:55:12;;;;;;;6.18;1.98;;;21.00;67.90;;;;;;5041929;28;20383;-72
2023/03/23 08:57:54;;;;;;;6.28;2.40;;;21.00;68.10;;;;;;5060079;28;20103;-72
2023/03/23 09:00:34;;;;;;;5.32;2.05;;;21.00;68.00;;;;;;5068922;28;20029;-72
2023/03/23 09:03:12;;;;;;;6.33;2.40;;;21.00;68.30;;;;;;5063605;28;20426;-73
2023/03/23 09:05:53;;;;;;;8.67;3.00;;;21.00;68.10;;;;;;5066185;28;20025;-73
2023/03/23 09:08:32;;;;;;;12.00;2.30;;;21.00;68.30;;;;;;5052137;28;20263;-73
2023/03/23 09:11:08;;;;;;;6.90;2.33;;;21.00;68.70;;;;;;5042138;28;20037;-74
2023/03/23 09:13:38;;;;;;;12.57;2.45;;;21.10;68.80;;;;;;5061577;28;20164;-73
2023/03/23 09:16:05;;;;;;;9.50;2.30;;;21.10;69.20;;;;;;5049526;28;20067;-73
2023/03/23 09:18:32;;;;;;;16.08;2.42;;;21.10;68.50;;;;;;5050959;28;20033;-74
2023/03/23 09:20:59;;;;;;;13.30;2.22;;;21.10;66.80;;;;;;5052630;28;20036;-74
2023/03/23 09:23:25;;;;;;;6.50;1.90;;;20.90;64.20;;;;;;5034481;28;20397;-73
2023/03/23 09:25:51;;;;;;;3.60;2.00;;;20.80;62.60;;;;;;5050058;28;20049;-74
2023/03/23 09:28:18;;;;;;;7.13;2.03;;;20.70;62.20;;;;;;5052474;28;20029;-72
2023/03/23 09:30:45;;;;;;;6.47;2.03;;;20.70;61.00;;;;;;5063675;28;20492;-72
2023/03/23 09:33:11;;;;;;;9.10;2.17;;;20.70;62.10;;;;;;5059238;28;20080;-72
2023/03/23 09:35:38;;;;;;;4.95;1.63;;;20.80;63.40;;;;;;5057202;28;20039;-72
2023/03/23 09:38:05;;;;;;;7.70;2.55;;;20.80;63.90;;;;;;5062286;28;20484;-72
2023/03/23 09:40:52;;;;;;;13.43;2.53;;;20.90;65.00;;;;;;5061562;28;20029;-73
2023/03/23 09:43:43;;;;;;;7.70;3.17;;;21.00;66.70;;;;;;5061140;28;20024;-75
2023/03/23 09:46:17;;;;;;;9.90;2.40;;;21.10;65.60;;;;;;5066952;28;20025;-72
2023/03/23 09:48:56;;;;;;;19.13;2.72;;;21.20;65.90;;;;;;5065374;28;20036;-73
2023/03/23 09:51:41;;;;;;;15.82;2.67;;;21.20;66.10;;;;;;5053249;28;20040;-72
2023/03/23 09:54:13;;;;;;;20.52;2.97;;;21.20;66.90;;;;;;5061656;28;20029;-72
2023/03/23 09:56:39;;;;;;;28.60;4.28;;;21.30;67.30;;;;;;5060068;28;20116;-72
2023/03/23 09:59:18;;;;;;;19.45;2.90;;;21.30;66.40;;;;;;5051109;28;20123;-73
2023/03/23 10:01:55;;;;;;;11.75;2.40;;;21.30;65.60;;;;;;5050867;28;20536;-73
2023/03/23 10:04:43;;;;;;;11.45;2.65;;;21.30;66.00;;;;;;5050811;28;20511;-73
2023/03/23 10:07:16;;;;;;;13.43;2.78;;;21.20;64.60;;;;;;5049757;28;20025;-73
2023/03/23 10:09:45;;;;;;;9.95;2.28;;;21.20;65.60;;;;;;5044096;28;20028;-73
2023/03/23 10:12:34;;;;;;;9.05;2.65;;;21.20;65.40;;;;;;5069345;28;20043;-73
2023/03/23 10:15:33;;;;;;;11.20;2.30;;;21.20;65.50;;;;;;5070597;28;20043;-72
2023/03/23 10:18:03;;;;;;;7.88;2.53;;;21.20;65.70;;;;;;5070089;28;20040;-73
2023/03/23 10:20:32;;;;;;;8.18;2.30;;;21.10;65.70;;;;;;5071482;28;20036;-73
2023/03/23 10:23:19;;;;;;;13.23;2.10;;;21.10;65.80;;;;;;5071140;28;20040;-72
2023/03/23 10:25:52;;;;;;;11.55;2.25;;;21.20;66.00;;;;;;5070280;28;20029;-73
2023/03/23 10:28:43;;;;;;;7.47;2.47;;;21.10;66.00;;;;;;5070960;28;20120;-73
2023/03/23 10:31:33;;;;;;;9.80;2.17;;;21.10;66.10;;;;;;5071372;28;20017;-73
2023/03/23 10:34:10;;;;;;;11.48;2.40;;;21.10;66.60;;;;;;5069632;28;20051;-73
2023/03/23 10:36:41;;;;;;;10.73;2.33;;;21.10;66.10;;;;;;5070889;28;20024;-73
2023/03/23 10:39:18;;;;;;;6.88;2.10;;;21.10;66.10;;;;;;5070627;28;20052;-73
2023/03/23 10:41:44;;;;;;;26.13;3.45;;;21.00;66.00;;;;;;5069910;28;20028;-73
2023/03/23 10:44:21;;;;;;;10.90;2.53;;;21.00;66.00;;;;;;5070998;28;20527;-73
2023/03/23 10:46:53;;;;;;;14.73;3.03;;;21.00;66.10;;;;;;5061487;28;20396;-74
2023/03/23 10:49:56;;;;;;;16.40;3.00;;;21.10;66.40;;;;;;5061890;22;20050;-73
2023/03/23 10:52:42;;;;;;;12.38;2.63;;;21.10;66.40;;;;;;5052831;28;20092;-73
2023/03/23 10:55:12;;;;;;;14.52;2.60;;;21.10;66.50;;;;;;5092207;28;20115;-71
2023/03/23 10:57:40;;;;;;;6.78;2.53;;;21.10;66.50;;;;;;5063385;28;20060;-72
2023/03/23 11:00:19;;;;;;;8.85;2.47;;;21.10;66.50;;;;;;5047173;28;20380;-72
2023/03/23 11:02:56;;;;;;;10.63;2.17;;;21.20;66.90;;;;;;5044049;28;20030;-72
2023/03/23 11:05:27;;;;;;;11.35;2.65;;;21.20;67.10;;;;;;5030673;28;20683;-74
2023/03/23 11:07:57;;;;;;;13.23;2.72;;;21.20;67.30;;;;;;5032901;28;20021;-75
2023/03/23 11:10:36;;;;;;;15.70;2.75;;;21.20;67.40;;;;;;5044874;28;20150;-73
2023/03/23 11:13:04;;;;;;;14.15;3.90;;;21.20;67.40;;;;;;5030977;28;20039;-74
2023/03/23 11:15:39;;;;;;;21.40;6.88;;;21.30;67.90;;;;;;5055645;28;20029;-74
2023/03/23 11:18:13;;;;;;;15.35;6.22;;;21.30;69.50;;;;;;5048251;28;20489;-73
2023/03/23 11:20:46;;;;;;;20.80;6.15;;;21.30;69.30;;;;;;5045652;28;20553;-74
2023/03/23 11:23:21;;;;;;;22.20;8.93;;;21.30;68.90;;;;;;5041713;28;20056;-74
2023/03/23 11:26:15;;;;;;;19.05;5.30;;;21.30;69.60;;;;;;5050711;28;20380;-74
2023/03/23 11:29:13;;;;;;;7.68;3.42;;;21.30;67.80;;;;;;5049565;28;20566;-73
2023/03/23 11:31:42;;;;;;;13.02;3.53;;;21.40;67.00;;;;;;5034215;28;20037;-74
2023/03/23 11:34:16;;;;;;;12.32;5.25;;;21.40;67.20;;;;;;5048232;28;20032;-73
2023/03/23 11:36:48;;;;;;;19.58;5.53;;;21.40;69.00;;;;;;5017016;28;20041;-74
2023/03/23 11:39:27;;;;;;;17.55;5.68;;;21.40;69.30;;;;;;5028529;28;20499;-75
2023/03/23 11:41:54;;;;;;;16.05;5.07;;;21.40;68.20;;;;;;5040673;28;20029;-74
2023/03/23 11:44:23;;;;;;;15.60;4.68;;;21.50;68.50;;;;;;5050683;28;20108;-74
2023/03/23 11:47:03;;;;;;;17.53;5.30;;;21.50;68.70;;;;;;5042434;28;20067;-75
2023/03/23 11:49:57;;;;;;;24.70;6.35;;;21.50;68.60;;;;;;5040118;28;20038;-74
2023/03/23 11:52:41;;;;;;;14.52;5.47;;;21.50;68.40;;;;;;5033459;28;20079;-74
2023/03/23 11:55:16;;;;;;;18.08;5.78;;;21.50;68.80;;;;;;5040897;28;20428;-73
2023/03/23 11:57:43;;;;;;;19.85;5.32;;;21.50;69.10;;;;;;5050988;28;20021;-73
2023/03/23 12:00:18;;;;;;;15.00;5.25;;;21.50;69.10;;;;;;5045653;28;20068;-74
2023/03/23 12:02:50;;;;;;;13.52;5.63;;;21.40;69.00;;;;;;5045693;28;20497;-73
2023/03/23 12:05:43;;;;;;;9.55;5.05;;;21.40;69.10;;;;;;5034426;28;20022;-73
2023/03/23 12:08:51;;;;;;;16.73;5.07;;;21.40;69.10;;;;;;5032728;28;20421;-73
2023/03/23 12:11:41;;;;;;;19.52;5.32;;;21.40;67.90;;;;;;4995182;28;20068;-72
2023/03/23 12:14:32;;;;;;;12.18;5.00;;;21.30;67.70;;;;;;5032308;28;20087;-74
2023/03/23 12:17:25;;;;;;;13.18;4.93;;;21.40;67.50;;;;;;5033934;28;20497;-74
2023/03/23 12:20:37;;;;;;;22.38;5.05;;;21.40;67.00;;;;;;5033180;28;20103;-74
2023/03/23 12:23:27;;;;;;;14.02;4.60;;;21.40;66.50;;;;;;5016126;28;20022;-72
2023/03/23 12:26:03;;;;;;;16.23;4.20;;;21.30;65.80;;;;;;5031981;28;20053;-73
2023/03/23 12:28:30;;;;;;;12.93;5.07;;;21.30;65.80;;;;;;5031838;28;20071;-74
2023/03/23 12:31:28;;;;;;;17.23;5.00;;;21.30;65.60;;;;;;5033729;28;20112;-74
2023/03/23 12:34:30;;;;;;;14.27;6.00;;;21.30;65.10;;;;;;5031147;28;20112;-74
2023/03/23 12:37:18;;;;;;;18.13;4.32;;;21.40;65.20;;;;;;5032771;28;20037;-74
2023/03/23 12:39:50;;;;;;;11.48;4.30;;;21.40;64.70;;;;;;5032905;28;20026;-74
2023/03/23 12:42:30;;;;;;;12.25;4.30;;;21.40;64.30;;;;;;5033109;28;20041;-73
2023/03/23 12:45:08;;;;;;;14.35;4.43;;;21.40;64.00;;;;;;5036668;28;20481;-73
2023/03/23 12:47:44;;;;;;;14.63;3.97;;;21.40;64.10;;;;;;5033443;28;20034;-74
2023/03/23 12:50:17;;;;;;;10.48;3.80;;;21.40;63.70;;;;;;5032636;28;20040;-74
2023/03/23 12:53:14;;;;;;;12.40;4.07;;;21.40;63.00;;;;;;5033005;28;20036;-73
2023/03/23 12:55:52;;;;;;;15.88;4.28;;;21.40;63.10;;;;;;5017128;28;20124;-74
2023/03/23 12:58:23;;;;;;;14.45;3.92;;;21.40;63.10;;;;;;5033282;28;20029;-75
2023/03/23 13:01:09;;;;;;;13.02;4.07;;;21.40;62.90;;;;;;5030366;28;20033;-75
2023/03/23 13:03:50;;;;;;;9.95;3.83;;;21.40;62.70;;;;;;5033187;28;20022;-73
2023/03/23 13:06:32;;;;;;;9.82;3.50;;;21.40;62.60;;;;;;5032319;28;20390;-75
2023/03/23 13:09:04;;;;;;;10.70;3.78;;;21.40;62.60;;;;;;5033188;28;20440;-73
2023/03/23 13:11:35;;;;;;;10.65;3.90;;;21.40;62.50;;;;;;5032361;28;20068;-73
2023/03/23 13:14:22;;;;;;;10.52;3.10;;;21.40;62.20;;;;;;5014976;28;20025;-74
2023/03/23 13:16:55;;;;;;;13.20;3.90;;;21.40;62.20;;;;;;5031943;28;20060;-74
2023/03/23 13:19:55;;;;;;;10.95;3.58;;;21.40;62.30;;;;;;5032753;28;20028;-74
2023/03/23 13:22:41;;;;;;;10.80;3.58;;;21.40;62.20;;;;;;5031932;28;20378;-74
2023/03/23 13:25:15;;;;;;;12.40;3.95;;;21.40;62.20;;;;;;5032875;28;20029;-74